Time;durP1;ratioP1;P1;durP2;ratioP2;P2;SDS_P1;SDS_P2;PMS_P1;PMS_P2;Temp;Humidity;BMP_temperature;BMP_pressure;BME280_temperature;BME280_humidity;BME280_pressure;Samples;Min_cycle;Max_cycle;Signal;HPM_P1;HPM_P2
2022/04/05 00:01:28;;;;;;;4.20;2.90;;;;;;;12.31;42.79;99039.71;1810770;78;21062;-60
2022/04/05 00:03:55;;;;;;;3.77;3.30;;;;;;;12.31;42.79;99045.04;1824932;78;21022;-61
2022/04/05 00:06:22;;;;;;;3.35;2.80;;;;;;;12.29;42.78;99042.27;1824888;78;20985;-60
2022/04/05 00:08:49;;;;;;;4.25;3.37;;;;;;;12.28;42.78;99037.42;1824845;78;21080;-60
2022/04/05 00:11:17;;;;;;;4.35;3.20;;;;;;;12.27;42.80;99037.65;1818768;78;21568;-60
2022/04/05 00:13:43;;;;;;;4.22;3.25;;;;;;;12.26;42.79;99036.80;1825242;78;21107;-60
2022/04/05 00:16:10;;;;;;;4.22;3.40;;;;;;;12.25;42.77;99032.52;1825079;78;21081;-60
2022/04/05 00:18:38;;;;;;;3.75;3.30;;;;;;;12.25;42.79;99027.19;1809060;78;21009;-61
2022/04/05 00:21:07;;;;;;;4.33;3.52;;;;;;;12.23;42.79;99019.91;1816497;78;20995;-59
2022/04/05 00:23:34;;;;;;;4.60;3.98;;;;;;;12.24;42.80;99022.86;1812190;78;21111;-60
2022/04/05 00:26:01;;;;;;;3.87;3.33;;;;;;;12.22;42.80;99016.91;1822038;78;21505;-59
2022/04/05 00:28:28;;;;;;;4.00;3.50;;;;;;;12.20;42.79;99013.11;1815531;78;21029;-60
2022/04/05 00:30:55;;;;;;;3.83;3.20;;;;;;;12.20;42.80;99010.97;1824902;78;20994;-61
2022/04/05 00:33:22;;;;;;;3.75;3.17;;;;;;;12.19;42.80;99010.67;1812251;78;21733;-61
2022/04/05 00:35:49;;;;;;;4.05;3.40;;;;;;;12.18;42.78;99001.02;1809870;78;21065;-60
2022/04/05 00:38:15;;;;;;;4.22;3.50;;;;;;;12.17;42.80;99006.05;1817082;78;20997;-59
2022/04/05 00:40:43;;;;;;;4.17;3.77;;;;;;;12.16;42.78;99003.06;1815251;78;21552;-61
2022/04/05 00:43:09;;;;;;;4.45;3.85;;;;;;;12.17;42.78;98999.39;1801714;78;21272;-61
2022/04/05 00:45:36;;;;;;;4.10;3.47;;;;;;;12.14;42.78;99003.25;1791010;78;21245;-60
2022/04/05 00:48:04;;;;;;;4.87;3.60;;;;;;;12.14;42.77;98997.92;1791761;80;21029;-60
2022/04/05 00:50:36;;;;;;;4.97;3.95;;;;;;;12.13;42.79;98982.98;1787515;79;21053;-60
2022/04/05 00:53:04;;;;;;;4.30;3.58;;;;;;;12.13;42.78;98988.31;1790702;79;21033;-60
2022/04/05 00:55:32;;;;;;;4.75;3.70;;;;;;;12.13;42.77;98987.47;1781844;79;21030;-60
2022/04/05 00:57:58;;;;;;;3.80;3.42;;;;;;;12.12;42.78;98981.84;1782458;79;21263;-60
2022/04/05 01:00:25;;;;;;;4.47;3.52;;;;;;;12.10;42.77;98983.37;1792146;80;21041;-60
2022/04/05 01:02:51;;;;;;;4.10;3.47;;;;;;;12.09;42.76;98972.42;1783920;79;21454;-60
2022/04/05 01:05:18;;;;;;;4.12;3.17;;;;;;;12.08;42.75;98970.76;1788347;79;21014;-60
2022/04/05 01:07:47;;;;;;;4.97;3.72;;;;;;;12.09;42.74;98974.23;1781109;79;21086;-60
2022/04/05 01:10:14;;;;;;;4.17;3.40;;;;;;;12.08;42.73;98968.61;1782783;79;21236;-60
2022/04/05 01:12:41;;;;;;;3.40;3.10;;;;;;;12.07;42.76;98964.30;1781855;79;21038;-60
2022/04/05 01:15:09;;;;;;;4.28;3.62;;;;;;;12.07;42.74;98957.64;1791158;79;21572;-60
2022/04/05 01:17:37;;;;;;;3.35;3.00;;;;;;;12.06;42.75;98956.83;1779834;79;20986;-60
2022/04/05 01:20:07;;;;;;;3.47;2.80;;;;;;;12.04;42.75;98958.87;1753772;76;21219;-60
2022/04/05 01:22:33;;;;;;;2.77;2.55;;;;;;;12.04;42.75;98949.55;1818749;77;21180;-60
2022/04/05 01:25:00;;;;;;;4.22;3.20;;;;;;;12.02;42.75;98943.60;1805667;77;21062;-59
2022/04/05 01:27:27;;;;;;;4.05;3.22;;;;;;;12.03;42.73;98940.42;1824017;76;21042;-59
2022/04/05 01:29:55;;;;;;;4.20;3.12;;;;;;;12.01;42.72;98940.61;1824834;78;21013;-60
2022/04/05 01:32:22;;;;;;;4.28;3.50;;;;;;;12.02;42.72;98937.46;1817969;78;21135;-60
2022/04/05 01:34:48;;;;;;;3.75;2.92;;;;;;;11.99;42.72;98936.84;1815858;76;21240;-60
2022/04/05 01:37:15;;;;;;;3.90;3.00;;;;;;;11.99;42.72;98931.52;1818163;78;20981;-59
2022/04/05 01:39:42;;;;;;;4.00;3.27;;;;;;;11.99;42.71;98925.34;1813660;78;21065;-60
2022/04/05 01:42:13;;;;;;;3.55;3.20;;;;;;;11.98;42.71;98929.86;1824852;78;21025;-61
2022/04/05 01:44:40;;;;;;;3.62;3.30;;;;;;;11.98;42.70;98931.70;1824831;78;21067;-61
2022/04/05 01:47:10;;;;;;;4.72;3.08;;;;;;;11.98;42.70;98927.72;1819424;78;21424;-60
2022/04/05 01:49:39;;;;;;;4.33;3.30;;;;;;;11.97;42.69;98920.73;1802682;78;21061;-58
2022/04/05 01:52:07;;;;;;;4.47;3.22;;;;;;;11.95;42.68;98912.94;1775457;79;21022;-61
2022/04/05 01:54:35;;;;;;;3.27;2.98;;;;;;;11.95;42.69;98906.80;1780786;78;21532;-60
2022/04/05 01:57:02;;;;;;;4.12;3.67;;;;;;;11.93;42.69;98908.33;1820421;77;21016;-62
2022/04/05 02:01:13;;;;;;;4.87;3.92;;;;;;;11.96;42.68;98897.30;1870343;76;28599;-60
2022/04/05 02:03:40;;;;;;;4.30;3.52;;;;;;;11.92;42.67;98906.70;1826548;78;21543;-59
2022/04/05 02:06:09;;;;;;;4.17;3.15;;;;;;;11.91;42.68;98899.72;1826468;78;21119;-60
2022/04/05 02:08:36;;;;;;;4.83;3.08;;;;;;;11.91;42.67;98898.39;1826479;78;20986;-60
2022/04/05 02:11:02;;;;;;;3.37;3.08;;;;;;;11.90;42.67;98891.44;1808147;78;20990;-60
2022/04/05 02:13:30;;;;;;;3.95;3.55;;;;;;;11.89;42.66;98899.09;1794205;79;20961;-60
2022/04/05 02:16:03;;;;;;;3.30;3.00;;;;;;;11.88;42.66;98897.92;1794035;79;20953;-60
2022/04/05 02:18:31;;;;;;;3.77;3.40;;;;;;;11.86;42.65;98889.31;1794165;79;21091;-60
2022/04/05 02:20:59;;;;;;;3.83;3.30;;;;;;;11.86;42.68;98895.97;1814552;78;20985;-60
2022/04/05 02:23:28;;;;;;;3.80;3.22;;;;;;;11.85;42.66;98888.50;1826433;78;20997;-61
2022/04/05 02:26:12;;;;;;;3.25;2.95;;;;;;;11.84;42.66;98890.88;1826308;78;20970;-60
2022/04/05 02:28:41;;;;;;;3.67;3.27;;;;;;;11.82;42.66;98880.94;1825383;78;21050;-61
2022/04/05 02:31:10;;;;;;;3.83;3.27;;;;;;;11.82;42.67;98872.95;1826676;78;21099;-60
2022/04/05 02:33:37;;;;;;;3.52;3.20;;;;;;;11.80;42.67;98877.13;1826360;78;21145;-60
2022/04/05 02:36:06;;;;;;;4.28;3.10;;;;;;;11.81;42.66;98871.30;1826126;78;21010;-61
2022/04/05 02:38:32;;;;;;;3.62;3.30;;;;;;;11.79;42.67;98862.17;1826693;78;20981;-59
2022/04/05 02:41:02;;;;;;;3.80;3.37;;;;;;;11.79;42.65;98865.35;1826484;78;21025;-61
2022/04/05 02:43:28;;;;;;;3.62;3.10;;;;;;;11.78;42.66;98860.55;1826440;78;21132;-61
2022/04/05 02:45:56;;;;;;;3.75;3.35;;;;;;;11.77;42.64;98861.55;1825267;78;21548;-60
2022/04/05 02:48:23;;;;;;;3.65;3.12;;;;;;;11.77;42.65;98855.41;1826471;78;20982;-59
2022/04/05 02:50:51;;;;;;;3.55;3.00;;;;;;;11.77;42.64;98852.75;1826596;78;21553;-59
2022/04/05 02:53:19;;;;;;;3.98;3.50;;;;;;;11.77;42.63;98847.43;1825583;78;21005;-59
2022/04/05 02:55:46;;;;;;;4.00;3.27;;;;;;;11.76;42.63;98849.77;1803163;79;22565;-60
2022/04/05 02:58:13;;;;;;;4.22;3.08;;;;;;;11.76;42.62;98851.09;1814626;79;21121;-60
2022/04/05 03:00:41;;;;;;;3.47;3.10;;;;;;;11.75;42.63;98844.15;1827584;78;21055;-61
2022/04/05 03:03:09;;;;;;;3.70;2.98;;;;;;;11.74;42.61;98839.34;1802848;79;21037;-60
2022/04/05 03:05:38;;;;;;;3.83;3.42;;;;;;;11.74;42.62;98835.84;1802644;79;21064;-60
2022/04/05 03:08:07;;;;;;;3.40;3.02;;;;;;;11.72;42.61;98842.68;1802857;79;21287;-60
2022/04/05 03:10:36;;;;;;;3.70;2.83;;;;;;;11.72;42.61;98830.71;1802476;79;20988;-61
2022/04/05 03:13:06;;;;;;;3.58;3.20;;;;;;;11.70;42.61;98824.77;1802102;79;22045;-59
2022/04/05 03:15:34;;;;;;;4.12;3.45;;;;;;;11.70;42.62;98831.42;1802010;79;21076;-60
2022/04/05 03:18:01;;;;;;;3.72;2.90;;;;;;;11.70;42.62;98824.77;1803271;78;20982;-59
2022/04/05 03:20:31;;;;;;;4.17;3.40;;;;;;;11.69;42.62;98824.98;1815977;78;21151;-61
2022/04/05 03:23:00;;;;;;;4.12;3.50;;;;;;;11.68;42.62;98816.68;1834852;78;21074;-61
2022/04/05 03:25:28;;;;;;;3.87;3.37;;;;;;;11.68;42.62;98815.35;1834792;77;20993;-60
2022/04/05 03:27:55;;;;;;;3.55;3.22;;;;;;;11.67;42.64;98818.53;1834878;77;21631;-61
2022/04/05 03:30:24;;;;;;;4.67;3.35;;;;;;;11.67;42.63;98812.39;1834944;77;21530;-60
2022/04/05 03:32:52;;;;;;;4.10;3.20;;;;;;;11.66;42.63;98804.09;1834893;78;21129;-60
2022/04/05 03:35:19;;;;;;;4.22;3.42;;;;;;;11.65;42.63;98799.77;1833857;78;21056;-60
2022/04/05 03:37:46;;;;;;;3.85;3.25;;;;;;;11.64;42.65;98793.64;1835334;77;21017;-60
2022/04/05 03:40:13;;;;;;;3.87;3.47;;;;;;;11.64;42.65;98790.16;1834939;78;21571;-60
2022/04/05 03:42:40;;;;;;;3.90;3.45;;;;;;;11.64;42.65;98799.48;1834900;77;21064;-60
2022/04/05 03:45:08;;;;;;;4.05;3.40;;;;;;;11.63;42.66;98795.16;1834884;78;22092;-60
2022/04/05 03:47:37;;;;;;;4.17;3.27;;;;;;;11.63;42.66;98799.16;1834787;77;21033;-59
2022/04/05 03:50:05;;;;;;;5.03;3.40;;;;;;;11.61;42.64;98789.55;1834969;77;20994;-61
2022/04/05 03:52:32;;;;;;;4.00;3.55;;;;;;;11.61;42.65;98786.88;1833705;77;21001;-60
2022/04/05 03:54:59;;;;;;;4.90;3.40;;;;;;;11.61;42.66;98797.53;1834928;77;20994;-60
2022/04/05 03:57:26;;;;;;;4.25;3.42;;;;;;;11.61;42.65;98789.55;1834891;77;21468;-60
2022/04/05 03:59:54;;;;;;;3.85;3.45;;;;;;;11.61;42.67;98786.08;1832348;77;21017;-60
2022/04/05 04:02:21;;;;;;;3.90;3.00;;;;;;;11.60;42.68;98777.25;1814088;79;20966;-61
2022/04/05 04:04:48;;;;;;;3.98;3.58;;;;;;;11.61;42.66;98778.09;1814056;79;21065;-62
2022/04/05 04:07:16;;;;;;;3.60;3.20;;;;;;;11.59;42.68;98775.63;1814146;79;21110;-60
2022/04/05 04:09:44;;;;;;;3.85;3.42;;;;;;;11.59;42.69;98771.63;1805590;78;21216;-61
2022/04/05 04:12:12;;;;;;;4.33;3.37;;;;;;;11.59;42.69;98776.95;1793362;79;21048;-60
2022/04/05 04:14:39;;;;;;;4.30;2.92;;;;;;;11.59;42.70;98772.96;1793316;79;21084;-61
2022/04/05 04:17:08;;;;;;;4.85;3.72;;;;;;;11.59;42.70;98768.97;1792511;79;21065;-59
2022/04/05 04:19:35;;;;;;;4.53;3.60;;;;;;;11.59;42.70;98767.64;1794889;78;20986;-60
2022/04/05 04:22:02;;;;;;;4.65;3.65;;;;;;;11.58;42.71;98771.31;1825888;78;22131;-59
2022/04/05 04:24:30;;;;;;;5.08;3.90;;;;;;;11.59;42.73;98755.67;1805203;78;21080;-60
2022/04/05 04:26:56;;;;;;;4.55;3.55;;;;;;;11.59;42.72;98754.86;1824836;78;21516;-59
2022/04/05 04:29:23;;;;;;;4.22;3.55;;;;;;;11.58;42.73;98751.36;1825762;78;20995;-59
2022/04/05 04:31:51;;;;;;;4.08;3.47;;;;;;;11.58;42.73;98754.02;1825925;78;21056;-60
2022/04/05 04:34:19;;;;;;;4.40;3.90;;;;;;;11.60;42.75;98747.17;1825916;78;20959;-59
2022/04/05 04:36:47;;;;;;;4.80;3.85;;;;;;;11.59;42.74;98761.52;1825784;78;21099;-60
2022/04/05 04:39:16;;;;;;;3.90;3.47;;;;;;;11.59;42.75;98743.70;1825902;78;21013;-60
2022/04/05 04:41:44;;;;;;;4.03;3.62;;;;;;;11.59;42.74;98739.72;1825831;78;21524;-61
2022/04/05 04:44:11;;;;;;;3.98;3.62;;;;;;;11.60;42.75;98741.34;1824689;78;21025;-60
2022/04/05 04:46:37;;;;;;;4.58;3.65;;;;;;;11.60;42.74;98741.86;1825776;78;21227;-60
2022/04/05 04:49:04;;;;;;;4.65;3.95;;;;;;;11.61;42.75;98748.31;1825763;78;21085;-60
2022/04/05 04:51:31;;;;;;;4.10;3.70;;;;;;;11.60;42.75;98741.34;1825812;78;21418;-60
2022/04/05 04:53:57;;;;;;;4.10;3.70;;;;;;;11.61;42.75;98741.66;1825782;78;20962;-60
2022/04/05 04:56:25;;;;;;;4.03;3.55;;;;;;;11.63;42.75;98751.27;1825853;78;21008;-60
2022/04/05 04:58:52;;;;;;;4.53;3.50;;;;;;;11.63;42.77;98744.13;1825973;78;22033;-59
2022/04/05 05:01:18;;;;;;;5.87;4.55;;;;;;;11.63;42.75;98737.48;1823939;78;20998;-59
2022/04/05 05:03:45;;;;;;;5.35;3.65;;;;;;;11.64;42.75;98746.27;1825693;78;21044;-59
2022/04/05 05:06:11;;;;;;;4.58;3.60;;;;;;;11.65;42.77;98746.08;1818013;78;21091;-60
2022/04/05 05:08:38;;;;;;;4.62;4.15;;;;;;;11.65;42.77;98746.08;1825928;78;21009;-60
2022/04/05 05:11:04;;;;;;;3.95;3.37;;;;;;;11.66;42.78;98740.24;1825930;78;21139;-60
2022/04/05 05:13:32;;;;;;;4.78;4.28;;;;;;;11.66;42.79;98739.72;1825792;78;20982;-60
2022/04/05 05:15:59;;;;;;;5.03;4.08;;;;;;;11.67;42.78;98736.05;1826017;78;21556;-60
2022/04/05 05:18:26;;;;;;;4.08;3.62;;;;;;;11.69;42.81;98741.19;1801783;78;21077;-61
2022/04/05 05:20:52;;;;;;;5.08;4.33;;;;;;;11.69;42.79;98735.86;1812326;78;21017;-61
2022/04/05 05:23:19;;;;;;;4.30;3.90;;;;;;;11.70;42.81;98736.16;1825957;78;21797;-60
2022/04/05 05:25:47;;;;;;;4.08;3.67;;;;;;;11.71;42.79;98744.46;1825739;78;21068;-59
2022/04/05 05:28:14;;;;;;;4.42;4.03;;;;;;;11.72;42.79;98746.09;1825817;78;21065;-61
2022/04/05 05:30:41;;;;;;;4.35;3.95;;;;;;;11.72;42.77;98730.94;1825823;78;21046;-61
2022/04/05 05:33:07;;;;;;;4.55;3.90;;;;;;;11.74;42.78;98730.25;1826191;78;21068;-61
2022/04/05 05:35:34;;;;;;;5.35;4.58;;;;;;;11.75;42.77;98716.43;1824509;78;21824;-59
2022/04/05 05:38:01;;;;;;;5.08;3.90;;;;;;;11.76;42.78;98718.05;1825731;78;21009;-60
2022/04/05 05:40:28;;;;;;;4.90;4.40;;;;;;;11.76;42.77;98720.23;1825871;78;21005;-60
2022/04/05 05:42:58;;;;;;;4.72;4.20;;;;;;;11.78;42.78;98714.68;1825814;78;21013;-59
2022/04/05 05:45:26;;;;;;;5.00;4.50;;;;;;;11.79;42.77;98705.70;1825869;78;20990;-61
2022/04/05 05:47:53;;;;;;;5.22;4.42;;;;;;;11.81;42.78;98702.32;1825793;78;21223;-60
2022/04/05 05:50:19;;;;;;;5.15;4.22;;;;;;;11.82;42.77;98699.98;1825930;78;21533;-59
2022/04/05 05:52:46;;;;;;;4.70;3.90;;;;;;;11.83;42.76;98692.29;1824648;78;21005;-59
2022/04/05 05:55:16;;;;;;;4.70;4.22;;;;;;;11.85;42.78;98696.90;1825806;78;21071;-60
2022/04/05 05:57:42;;;;;;;5.12;4.37;;;;;;;11.85;42.78;98687.59;1825760;78;21002;-60
2022/04/05 06:00:17;;;;;;;5.15;4.22;;;;;;;11.87;42.75;98689.53;1825741;78;21227;-60
2022/04/05 06:02:42;;;;;;;5.78;4.62;;;;;;;11.87;42.77;98686.06;1829134;77;21531;-61
2022/04/05 06:05:09;;;;;;;5.10;4.03;;;;;;;11.88;42.77;98691.19;1829341;78;21553;-61
2022/04/05 06:07:35;;;;;;;4.40;4.00;;;;;;;11.90;42.75;98681.67;1829168;78;21052;-59
2022/04/05 06:10:05;;;;;;;5.47;4.55;;;;;;;11.90;42.73;98683.84;1828427;78;21031;-61
2022/04/05 06:12:33;;;;;;;5.17;4.67;;;;;;;11.92;42.74;98680.47;1829252;78;21930;-59
2022/04/05 06:15:01;;;;;;;5.45;4.47;;;;;;;11.93;42.74;98682.61;1829331;78;20982;-60
2022/04/05 06:17:27;;;;;;;4.85;4.35;;;;;;;11.93;42.71;98686.09;1829196;78;20969;-60
2022/04/05 06:19:54;;;;;;;5.17;4.55;;;;;;;11.95;42.74;98683.23;1829330;78;21065;-60
2022/04/05 06:22:21;;;;;;;5.60;4.40;;;;;;;11.96;42.72;98675.56;1829337;78;21525;-60
2022/04/05 06:24:48;;;;;;;4.42;4.03;;;;;;;11.97;42.72;98673.20;1827565;78;21074;-61
2022/04/05 06:27:33;;;;;;;4.75;4.12;;;;;;;11.97;42.70;98660.70;1796717;79;20998;-61
2022/04/05 06:30:17;;;;;;;4.50;4.10;;;;;;;11.98;42.71;98686.31;1796668;79;21021;-60
2022/04/05 06:33:15;;;;;;;5.15;4.65;;;;;;;11.99;42.72;98661.84;1796837;79;21017;-60
2022/04/05 06:36:01;;;;;;;5.75;4.42;;;;;;;12.00;42.70;98668.29;1796689;79;21041;-60
2022/04/05 06:38:46;;;;;;;5.17;4.33;;;;;;;12.02;42.71;98655.30;1796658;79;21009;-62
2022/04/05 06:41:31;;;;;;;5.75;3.85;;;;;;;12.01;42.70;98658.45;1796668;79;21042;-60
2022/04/05 06:46:45;;;;;;;4.90;4.35;;;;;;;12.08;42.74;98654.48;1764426;80;27980;-61
2022/04/05 06:49:12;;;;;;;4.90;4.40;;;;;;;12.04;42.75;98643.42;1790137;80;20949;-61
2022/04/05 06:51:38;;;;;;;4.95;4.45;;;;;;;12.07;42.73;98642.18;1790080;80;21126;-60
2022/04/05 06:54:05;;;;;;;5.25;4.53;;;;;;;12.08;42.73;98638.52;1790131;80;21508;-60
2022/04/05 06:56:32;;;;;;;5.00;4.50;;;;;;;12.10;42.73;98627.14;1790023;80;21004;-62
2022/04/05 06:58:58;;;;;;;6.22;5.05;;;;;;;12.11;42.73;98629.61;1786008;79;21086;-60
2022/04/05 07:01:25;;;;;;;4.95;4.50;;;;;;;12.14;42.72;98625.70;1782636;80;21548;-61
2022/04/05 07:03:52;;;;;;;5.42;4.60;;;;;;;12.15;42.72;98638.82;1790185;80;21134;-60
2022/04/05 07:06:19;;;;;;;5.67;4.92;;;;;;;12.18;42.70;98638.91;1790179;80;21025;-60
2022/04/05 07:08:47;;;;;;;4.47;3.98;;;;;;;12.20;42.71;98628.35;1790201;80;21032;-60
2022/04/05 07:11:14;;;;;;;4.55;4.15;;;;;;;12.22;42.70;98634.81;1790090;80;21091;-60
2022/04/05 07:13:41;;;;;;;4.90;3.90;;;;;;;12.26;42.69;98634.70;1790012;80;21709;-59
2022/04/05 07:16:07;;;;;;;5.05;4.55;;;;;;;12.28;42.68;98619.86;1788403;80;21247;-60
2022/04/05 07:18:34;;;;;;;5.15;4.60;;;;;;;12.30;42.68;98645.77;1785102;80;21483;-61
2022/04/05 07:21:02;;;;;;;5.15;4.37;;;;;;;12.31;42.66;98625.59;1790094;80;20997;-60
2022/04/05 07:23:29;;;;;;;5.15;4.35;;;;;;;12.32;42.65;98633.90;1790007;80;21028;-60
2022/04/05 07:25:55;;;;;;;4.90;4.40;;;;;;;12.35;42.64;98628.66;1790036;80;21028;-60
2022/04/05 07:28:22;;;;;;;5.35;4.60;;;;;;;12.36;42.62;98615.64;1790096;80;21177;-60
2022/04/05 07:30:48;;;;;;;5.10;4.60;;;;;;;12.38;42.62;98622.41;1789992;80;21020;-60
2022/04/05 07:33:17;;;;;;;4.80;4.35;;;;;;;12.40;42.60;98610.23;1782293;80;21021;-60
2022/04/05 07:35:44;;;;;;;4.37;3.98;;;;;;;12.42;42.59;98599.34;1758783;81;21040;-60
2022/04/05 07:38:12;;;;;;;4.62;4.20;;;;;;;12.42;42.58;98612.17;1758934;81;21060;-59
2022/04/05 07:40:48;;;;;;;5.35;4.37;;;;;;;12.46;42.57;98605.89;1758783;81;21179;-60
2022/04/05 07:43:22;;;;;;;4.58;4.05;;;;;;;12.46;42.54;98604.06;1758865;81;20969;-61
2022/04/05 07:45:49;;;;;;;4.78;4.30;;;;;;;12.48;42.54;98602.02;1758639;81;21032;-60
2022/04/05 07:48:20;;;;;;;5.00;4.35;;;;;;;12.50;42.54;98612.47;1761463;81;21064;-61
2022/04/05 07:50:48;;;;;;;6.08;4.60;;;;;;;12.50;42.51;98607.95;1762582;80;21327;-61
2022/04/05 07:53:15;;;;;;;5.05;4.55;;;;;;;12.50;42.50;98596.48;1761475;81;21155;-59
2022/04/05 07:55:42;;;;;;;5.08;4.15;;;;;;;12.53;42.49;98586.72;1761467;81;21610;-60
2022/04/05 07:58:09;;;;;;;4.60;4.17;;;;;;;12.53;42.48;98584.87;1761200;81;21009;-61
2022/04/05 08:00:36;;;;;;;4.92;4.35;;;;;;;12.56;42.47;98592.98;1786930;80;21332;-61
2022/04/05 08:03:04;;;;;;;4.70;4.15;;;;;;;12.56;42.45;98574.33;1792379;80;21090;-62
2022/04/05 08:05:31;;;;;;;4.83;4.28;;;;;;;12.57;42.42;98582.12;1792278;80;21088;-59
2022/04/05 08:07:58;;;;;;;4.80;4.35;;;;;;;12.58;42.43;98600.25;1791325;80;21503;-61
2022/04/05 08:10:24;;;;;;;5.15;4.35;;;;;;;12.58;42.39;98605.05;1792222;80;21095;-60
2022/04/05 08:12:51;;;;;;;4.85;3.98;;;;;;;12.60;42.38;98599.52;1792694;80;21016;-61
2022/04/05 08:15:20;;;;;;;5.45;4.85;;;;;;;12.61;42.36;98589.16;1792384;80;20989;-60
2022/04/05 08:17:50;;;;;;;5.12;4.30;;;;;;;12.61;42.35;98591.81;1792617;80;21052;-61
2022/04/05 08:20:18;;;;;;;4.85;4.45;;;;;;;12.63;42.33;98595.61;1792251;80;21009;-61
2022/04/05 08:22:47;;;;;;;4.80;4.15;;;;;;;12.63;42.32;98616.41;1790421;80;21548;-61
2022/04/05 08:25:16;;;;;;;4.70;4.28;;;;;;;12.63;42.27;98592.42;1783233;80;20977;-60
2022/04/05 08:27:46;;;;;;;4.90;4.25;;;;;;;12.64;42.26;98593.27;1783953;80;21032;-60
2022/04/05 08:30:15;;;;;;;4.75;4.25;;;;;;;12.64;42.26;98596.73;1783956;80;21137;-61
2022/04/05 08:32:43;;;;;;;4.90;4.40;;;;;;;12.65;42.26;98587.73;1784181;80;21068;-62
2022/04/05 08:35:11;;;;;;;4.80;4.12;;;;;;;12.66;42.24;98593.88;1784102;80;21567;-61
2022/04/05 08:37:40;;;;;;;5.15;4.37;;;;;;;12.66;42.25;98584.02;1783935;80;21032;-59
2022/04/05 08:40:08;;;;;;;4.40;4.00;;;;;;;12.67;42.23;98576.34;1783919;80;21096;-60
2022/04/05 08:42:35;;;;;;;4.42;4.03;;;;;;;12.69;42.24;98590.77;1766145;80;21117;-62
2022/04/05 08:45:07;;;;;;;5.08;4.53;;;;;;;12.69;42.24;98584.95;1760836;81;21115;-60
2022/04/05 08:47:46;;;;;;;5.75;5.12;;;;;;;12.70;42.23;98578.58;1761015;81;21531;-60
2022/04/05 08:50:19;;;;;;;4.97;4.50;;;;;;;12.70;42.22;98577.24;1761185;81;21540;-61
2022/04/05 08:52:47;;;;;;;5.70;4.70;;;;;;;12.72;42.20;98590.36;1760863;81;21597;-60
2022/04/05 08:55:14;;;;;;;4.67;4.17;;;;;;;12.72;42.21;98603.16;1761092;81;21245;-61
2022/04/05 08:57:41;;;;;;;4.53;4.10;;;;;;;12.72;42.18;98607.69;1762494;79;21057;-61
2022/04/05 09:00:10;;;;;;;4.72;4.30;;;;;;;12.73;42.16;98592.02;1780929;80;21618;-60
2022/04/05 09:02:37;;;;;;;4.42;4.03;;;;;;;12.73;42.17;98614.66;1792291;80;20998;-60
2022/04/05 09:05:05;;;;;;;5.25;4.55;;;;;;;12.73;42.16;98574.69;1792367;80;21123;-60
2022/04/05 09:07:40;;;;;;;5.45;4.58;;;;;;;12.74;42.16;98580.31;1792232;80;20981;-61
2022/04/05 09:10:14;;;;;;;4.55;4.15;;;;;;;12.74;42.17;98601.11;1791465;80;21037;-60
2022/04/05 09:12:47;;;;;;;4.72;4.25;;;;;;;12.74;42.16;98606.44;1792478;80;21021;-60
2022/04/05 09:15:23;;;;;;;5.50;4.87;;;;;;;12.74;42.16;98582.97;1784761;80;21005;-61
2022/04/05 09:17:50;;;;;;;4.85;4.45;;;;;;;12.74;42.17;98573.13;1761107;81;21254;-61
2022/04/05 09:20:20;;;;;;;4.87;4.37;;;;;;;12.75;42.19;98589.43;1760984;81;21288;-60
2022/04/05 09:22:48;;;;;;;4.75;4.35;;;;;;;12.76;42.19;98567.59;1761203;81;21020;-60
2022/04/05 09:25:16;;;;;;;4.45;4.05;;;;;;;12.76;42.19;98593.72;1760896;81;21016;-60
2022/04/05 09:27:55;;;;;;;5.47;4.40;;;;;;;12.77;42.19;98590.56;1760940;81;21006;-63
2022/04/05 09:30:31;;;;;;;6.65;4.37;;;;;;;12.79;42.20;98565.33;1788348;80;21113;-59
2022/04/05 09:32:57;;;;;;;6.17;4.30;;;;;;;12.82;44.56;98551.27;1772244;80;21178;-60
2022/04/05 09:35:31;;;;;;;4.90;4.25;;;;;;;12.93;47.02;98557.28;1760836;81;21015;-62
2022/04/05 09:38:16;;;;;;;4.62;3.98;;;;;;;13.03;47.08;98548.82;1759525;81;21501;-61
2022/04/05 09:40:43;;;;;;;4.08;3.62;;;;;;;13.12;46.91;98561.69;1761274;81;21044;-60
2022/04/05 09:43:14;;;;;;;5.25;4.03;;;;;;;13.18;46.55;98556.83;1761307;81;21076;-59
2022/04/05 09:45:58;;;;;;;5.45;3.87;;;;;;;13.24;46.38;98585.02;1760414;81;21198;-60
2022/04/05 09:48:25;;;;;;;5.55;4.22;;;;;;;13.29;46.17;98565.17;1758392;81;21052;-61
2022/04/05 09:51:16;;;;;;;4.20;3.80;;;;;;;13.31;45.97;98547.16;1759312;80;21640;-61
2022/04/05 09:53:51;;;;;;;5.75;4.40;;;;;;;13.34;45.76;98542.72;1758164;81;21076;-60
2022/04/05 09:56:40;;;;;;;4.70;4.20;;;;;;;13.35;45.52;98547.84;1758352;81;21039;-59
2022/04/05 09:59:18;;;;;;;4.78;4.30;;;;;;;13.37;45.34;98538.30;1777759;80;21040;-60
2022/04/05 10:01:47;;;;;;;5.08;4.50;;;;;;;13.39;45.18;98539.42;1789754;80;21045;-61
2022/04/05 10:04:16;;;;;;;5.62;4.30;;;;;;;13.39;45.11;98546.09;1789046;80;20985;-60
2022/04/05 10:06:47;;;;;;;4.78;3.95;;;;;;;13.39;45.00;98545.56;1788382;80;21512;-60
2022/04/05 10:09:15;;;;;;;4.55;4.15;;;;;;;13.40;44.90;98549.85;1789764;80;21497;-61
2022/04/05 10:11:43;;;;;;;4.28;3.87;;;;;;;13.40;44.83;98540.52;1789451;80;21508;-60
2022/04/05 10:14:13;;;;;;;4.97;4.05;;;;;;;13.41;44.74;98530.16;1789359;80;21012;-61
2022/04/05 10:16:39;;;;;;;4.45;3.92;;;;;;;13.42;44.72;98541.64;1789334;80;20973;-60
2022/04/05 10:19:12;;;;;;;4.17;3.77;;;;;;;13.41;44.59;98526.16;1789372;80;21013;-61
2022/04/05 10:21:43;;;;;;;4.55;3.87;;;;;;;13.41;44.58;98531.49;1789750;80;21001;-61
2022/04/05 10:24:11;;;;;;;4.55;4.15;;;;;;;13.42;44.52;98522.97;1788379;80;21208;-61
2022/04/05 10:26:42;;;;;;;6.03;3.72;;;;;;;13.41;44.42;98530.69;1789380;80;22024;-61
2022/04/05 10:29:15;;;;;;;4.05;3.65;;;;;;;13.40;44.41;98523.17;1789398;80;21197;-60
2022/04/05 10:31:57;;;;;;;3.92;3.52;;;;;;;13.40;44.40;98524.52;1789556;80;21068;-60
2022/04/05 10:34:30;;;;;;;4.60;4.05;;;;;;;13.40;44.34;98519.70;1788700;80;21051;-60
2022/04/05 10:37:16;;;;;;;;;;;;;;;13.37;44.30;98518.29;1776022;80;21544;-59
2022/04/05 10:39:57;;;;;;;4.15;3.75;;;;;;;13.37;44.28;98532.96;1788521;80;20157;-61
2022/04/05 10:42:25;;;;;;;4.28;3.87;;;;;;;13.33;44.29;98511.23;1758187;81;21017;-60
2022/04/05 10:44:56;;;;;;;3.95;3.55;;;;;;;13.31;44.26;98518.64;1758409;81;21083;-60
2022/04/05 10:47:22;;;;;;;5.25;3.83;;;;;;;13.29;44.24;98500.67;1727986;81;21076;-60
2022/04/05 10:49:51;;;;;;;3.95;3.60;;;;;;;13.28;44.25;98503.02;1758279;81;21488;-59
2022/04/05 10:52:25;;;;;;;4.10;3.70;;;;;;;13.27;44.23;98489.89;1758105;81;21020;-60
2022/04/05 10:55:04;;;;;;;4.33;3.92;;;;;;;13.26;44.23;98490.95;1758278;81;21064;-60
2022/04/05 10:57:36;;;;;;;4.35;3.95;;;;;;;13.25;44.21;98501.30;1754840;80;21596;-60
2022/04/05 11:00:07;;;;;;;4.20;3.72;;;;;;;13.24;44.22;98519.16;1757834;81;21005;-59
2022/04/05 11:03:01;;;;;;;4.40;4.00;;;;;;;13.22;44.19;98484.41;1758139;81;21013;-60
2022/04/05 11:05:38;;;;;;;4.78;3.62;;;;;;;13.21;44.17;98483.58;1758070;81;21099;-59
2022/04/05 11:08:08;;;;;;;4.12;3.67;;;;;;;13.20;44.17;98499.81;1758150;81;21122;-60
2022/04/05 11:10:46;;;;;;;3.58;3.25;;;;;;;13.17;44.14;98503.70;1758024;81;21489;-62
2022/04/05 11:13:31;;;;;;;4.17;3.77;;;;;;;13.16;44.13;98490.90;1758192;81;21001;-60
2022/04/05 11:15:59;;;;;;;4.75;3.80;;;;;;;13.16;44.12;98496.23;1788351;80;21202;-59
2022/04/05 11:18:30;;;;;;;4.42;4.03;;;;;;;13.14;44.12;98508.96;1789421;80;21029;-61
2022/04/05 11:20:57;;;;;;;4.25;3.85;;;;;;;13.14;44.09;98475.63;1789311;80;21056;-59
2022/04/05 11:23:41;;;;;;;3.60;3.30;;;;;;;13.13;44.09;98478.02;1789378;80;21020;-60
2022/04/05 11:26:33;;;;;;;;;;;;;;;13.12;44.10;98477.70;1791255;80;21063;-60
2022/04/05 11:29:01;;;;;;;3.85;3.45;;;;;;;13.13;44.08;98473.17;1789446;80;21265;-61
2022/04/05 11:31:37;;;;;;;4.15;3.75;;;;;;;13.10;44.05;98469.10;1788087;80;21048;-61
2022/04/05 11:34:37;;;;;;;4.20;3.55;;;;;;;13.09;44.08;98489.31;1789508;80;21044;-60
2022/04/05 11:37:06;;;;;;;3.92;3.50;;;;;;;13.08;44.06;98457.84;1775536;80;21536;-60
2022/04/05 11:39:39;;;;;;;4.00;3.55;;;;;;;13.08;44.08;98469.84;1786393;80;21067;-61
2022/04/05 11:42:08;;;;;;;3.67;3.37;;;;;;;13.07;44.07;98460.19;1783966;80;21064;-60
2022/04/05 11:44:35;;;;;;;4.17;3.77;;;;;;;13.07;44.07;98447.38;1789364;80;21025;-60
2022/04/05 11:47:02;;;;;;;4.15;3.58;;;;;;;13.08;44.06;98442.36;1790661;80;21076;-61
2022/04/05 11:49:41;;;;;;;3.37;3.02;;;;;;;13.08;44.05;98456.50;1768187;80;21460;-61